createdAt,value
2024-01-20T00:01:44.891Z,4.45
2024-01-20T00:04:11.970Z,4.00
2024-01-20T00:06:39.013Z,3.67
2024-01-20T00:09:06.071Z,5.45
2024-01-20T00:11:32.896Z,3.58
2024-01-20T00:13:59.758Z,3.83
2024-01-20T00:16:26.657Z,2.75
2024-01-20T00:18:53.571Z,2.22
2024-01-20T00:21:20.600Z,6.20
2024-01-20T00:23:47.545Z,4.57
2024-01-20T00:26:14.485Z,2.97
2024-01-20T00:28:42.764Z,4.13
2024-01-20T00:31:10.625Z,4.18
2024-01-20T00:33:38.500Z,3.67
2024-01-20T00:36:05.799Z,6.38
2024-01-20T00:38:34.142Z,4.35
2024-01-20T00:41:01.024Z,4.80
2024-01-20T00:43:27.826Z,4.82
2024-01-20T00:45:54.635Z,3.38
2024-01-20T00:48:21.541Z,5.28
2024-01-20T00:50:48.288Z,4.32
2024-01-20T00:53:15.116Z,4.38
2024-01-20T00:55:41.921Z,3.65
2024-01-20T00:58:09.307Z,4.53
2024-01-20T01:00:36.086Z,3.05
2024-01-20T01:03:04.125Z,3.72
2024-01-20T01:05:31.145Z,3.55
2024-01-20T01:07:58.110Z,4.20
2024-01-20T01:10:24.916Z,5.13
2024-01-20T01:12:51.677Z,3.63
2024-01-20T01:15:18.464Z,3.08
2024-01-20T01:17:45.264Z,3.55
2024-01-20T01:20:12.748Z,2.85
2024-01-20T01:25:06.835Z,2.47
2024-01-20T01:27:33.634Z,3.20
2024-01-20T01:30:00.495Z,2.67
2024-01-20T01:32:27.436Z,2.78
2024-01-20T01:34:54.295Z,4.53
2024-01-20T01:37:21.073Z,3.20
2024-01-20T01:39:48.023Z,2.92
2024-01-20T01:42:14.814Z,2.35
2024-01-20T01:44:41.557Z,2.15
2024-01-20T01:47:08.505Z,2.08
2024-01-20T01:49:35.292Z,3.28
2024-01-20T01:52:03.655Z,2.95
2024-01-20T01:54:30.937Z,3.05
2024-01-20T01:57:01.166Z,3.42
2024-01-20T01:59:32.693Z,4.60
2024-01-20T02:01:59.419Z,3.95
2024-01-20T02:04:26.634Z,3.03
2024-01-20T02:06:54.001Z,2.78
2024-01-20T02:11:49.537Z,2.70
2024-01-20T02:14:16.558Z,3.03
2024-01-20T02:16:43.284Z,2.78
2024-01-20T02:19:10.255Z,3.47
2024-01-20T02:21:39.076Z,4.07
2024-01-20T02:24:10.124Z,4.18
2024-01-20T02:26:36.940Z,3.00
2024-01-20T02:29:03.747Z,3.78
2024-01-20T02:31:30.529Z,3.60
2024-01-20T02:33:57.398Z,3.60
2024-01-20T02:36:24.261Z,4.00
2024-01-20T02:38:51.085Z,3.65
2024-01-20T02:41:17.866Z,2.38
2024-01-20T02:43:44.609Z,5.05
2024-01-20T02:46:11.363Z,3.15
2024-01-20T02:48:38.206Z,4.03
2024-01-20T02:51:05.459Z,4.03
2024-01-20T02:53:32.254Z,2.90
2024-01-20T02:55:59.072Z,3.30
2024-01-20T02:58:25.950Z,3.67
2024-01-20T03:00:52.730Z,2.80
2024-01-20T03:03:19.644Z,2.28
2024-01-20T03:05:46.616Z,2.25
2024-01-20T03:08:13.464Z,2.40
2024-01-20T03:10:40.243Z,2.95
2024-01-20T03:13:07.052Z,4.15
2024-01-20T03:15:33.941Z,3.70
2024-01-20T03:18:00.905Z,3.35
2024-01-20T03:20:27.723Z,3.33
2024-01-20T03:22:54.490Z,2.97
2024-01-20T03:25:21.233Z,3.38
2024-01-20T03:27:47.964Z,3.30
2024-01-20T03:30:15.130Z,3.33
2024-01-20T03:32:42.021Z,3.15
2024-01-20T03:35:09.115Z,2.95
2024-01-20T03:37:35.929Z,3.00
2024-01-20T03:40:03.588Z,3.42
2024-01-20T03:42:30.528Z,4.00
2024-01-20T03:44:57.456Z,3.25
2024-01-20T03:47:24.184Z,3.72
2024-01-20T03:49:51.067Z,4.53
2024-01-20T03:52:17.866Z,3.63
2024-01-20T03:54:44.623Z,2.08
2024-01-20T03:57:11.778Z,4.60
2024-01-20T03:59:38.594Z,3.72
2024-01-20T04:02:05.431Z,4.30
2024-01-20T04:04:33.076Z,2.70
2024-01-20T04:06:59.882Z,3.85
2024-01-20T04:09:26.727Z,4.07
2024-01-20T04:11:53.624Z,3.65
2024-01-20T04:14:20.336Z,4.07
2024-01-20T04:16:47.100Z,3.53
2024-01-20T04:19:13.969Z,5.07
2024-01-20T04:21:40.916Z,3.38
2024-01-20T04:24:07.831Z,2.80
2024-01-20T04:26:34.739Z,3.30
2024-01-20T04:29:01.999Z,3.25
2024-01-20T04:31:28.730Z,3.13
2024-01-20T04:33:55.533Z,3.65
2024-01-20T04:36:22.599Z,2.95
2024-01-20T04:38:49.472Z,3.08
2024-01-20T04:41:16.219Z,3.38
2024-01-20T04:43:43.250Z,3.55
2024-01-20T04:46:10.116Z,3.15
2024-01-20T04:48:37.007Z,3.03
2024-01-20T04:51:04.377Z,3.50
2024-01-20T04:53:31.139Z,2.70
2024-01-20T04:55:57.911Z,4.10
2024-01-20T04:58:24.642Z,2.80
2024-01-20T05:00:51.404Z,3.78
2024-01-20T05:03:18.211Z,2.22
2024-01-20T05:05:45.002Z,3.47
2024-01-20T05:08:11.795Z,3.50
2024-01-20T05:10:38.540Z,5.40
2024-01-20T05:13:05.739Z,3.85
2024-01-20T05:15:32.807Z,2.58
2024-01-20T05:17:59.960Z,3.85
2024-01-20T05:20:26.782Z,4.68
2024-01-20T05:22:53.552Z,3.53
2024-01-20T05:25:20.285Z,3.63
2024-01-20T05:27:47.534Z,3.88
2024-01-20T05:30:14.865Z,3.40
2024-01-20T05:32:42.798Z,4.13
2024-01-20T05:35:09.726Z,3.88
2024-01-20T05:37:36.492Z,3.72
2024-01-20T05:40:06.168Z,3.85
2024-01-20T05:42:32.971Z,3.97
2024-01-20T05:45:00.966Z,3.05
2024-01-20T05:47:27.904Z,4.30
2024-01-20T05:49:54.693Z,4.03
2024-01-20T05:52:21.467Z,2.78
2024-01-20T05:54:48.197Z,3.40
2024-01-20T05:57:15.031Z,4.45
2024-01-20T05:59:41.738Z,4.43
2024-01-20T06:02:08.859Z,4.13
2024-01-20T06:04:35.609Z,4.47
2024-01-20T06:07:02.357Z,5.35
2024-01-20T06:09:29.179Z,4.15
2024-01-20T06:11:56.030Z,4.07
2024-01-20T06:14:22.842Z,5.72
2024-01-20T06:16:49.633Z,4.35
2024-01-20T06:19:17.922Z,5.38
2024-01-20T06:21:44.855Z,4.28
2024-01-20T06:24:13.105Z,5.00
2024-01-20T06:26:39.850Z,3.60
2024-01-20T06:29:06.669Z,3.08
2024-01-20T06:31:33.421Z,5.15
2024-01-20T06:34:00.353Z,4.72
2024-01-20T06:36:27.338Z,4.25
2024-01-20T06:38:54.786Z,4.88
2024-01-20T06:43:48.282Z,3.83
2024-01-20T06:46:15.197Z,6.00
2024-01-20T06:48:42.071Z,5.43
2024-01-20T06:51:16.126Z,4.32
2024-01-20T06:53:46.301Z,4.10
2024-01-20T06:56:13.090Z,3.90
2024-01-20T06:58:40.245Z,4.13
2024-01-20T07:01:07.102Z,3.75
2024-01-20T07:03:34.037Z,4.10
2024-01-20T07:06:01.525Z,4.07
2024-01-20T07:08:28.406Z,4.38
2024-01-20T07:10:55.256Z,3.88
2024-01-20T07:13:21.989Z,4.45
2024-01-20T07:15:49.173Z,3.97
2024-01-20T07:18:16.093Z,4.90
2024-01-20T07:20:42.977Z,4.20
2024-01-20T07:23:09.687Z,4.00
2024-01-20T07:25:37.880Z,3.58
2024-01-20T07:28:07.376Z,3.58
2024-01-20T07:30:35.229Z,4.32
2024-01-20T07:33:02.149Z,4.05
2024-01-20T07:35:28.961Z,2.83
2024-01-20T07:37:55.760Z,3.90
2024-01-20T07:40:22.565Z,3.80
2024-01-20T07:42:49.358Z,3.65
2024-01-20T07:45:16.356Z,4.53
2024-01-20T07:47:43.118Z,3.83
2024-01-20T07:50:10.062Z,3.97
2024-01-20T07:52:40.484Z,5.25
2024-01-20T07:55:08.145Z,4.03
2024-01-20T07:57:35.011Z,3.72
2024-01-20T08:00:02.073Z,4.10
2024-01-20T08:02:28.938Z,4.65
2024-01-20T08:04:55.699Z,3.80
2024-01-20T08:07:22.446Z,6.10
2024-01-20T08:09:49.405Z,4.00
2024-01-20T08:12:16.135Z,4.28
2024-01-20T08:14:42.984Z,5.75
2024-01-20T08:17:09.826Z,4.10
2024-01-20T08:19:36.644Z,5.57
2024-01-20T08:22:04.425Z,4.20
2024-01-20T08:24:31.692Z,4.97
2024-01-20T08:26:58.484Z,7.50
2024-01-20T08:29:25.351Z,4.50
2024-01-20T08:31:52.144Z,7.93
2024-01-20T08:34:19.607Z,5.10
2024-01-20T08:36:46.361Z,6.15
2024-01-20T08:39:13.241Z,5.07
2024-01-20T08:41:40.316Z,8.75
2024-01-20T08:44:07.127Z,6.53
2024-01-20T08:46:33.978Z,5.68
2024-01-20T08:49:00.705Z,6.38
2024-01-20T08:51:27.465Z,6.43
2024-01-20T08:53:54.297Z,5.38
2024-01-20T08:56:21.050Z,5.22
2024-01-20T08:58:47.798Z,4.88
2024-01-20T09:01:14.729Z,4.95
2024-01-20T09:03:41.643Z,5.47
2024-01-20T09:06:08.871Z,5.95
2024-01-20T09:08:35.690Z,5.80
2024-01-20T09:11:02.953Z,6.28
2024-01-20T09:13:29.815Z,5.43
2024-01-20T09:15:56.773Z,2.90
2024-01-20T09:18:25.012Z,4.35
2024-01-20T09:20:51.965Z,4.05
2024-01-20T09:23:18.691Z,3.67
2024-01-20T09:25:45.893Z,4.63
2024-01-20T09:28:12.679Z,5.72
2024-01-20T09:30:40.438Z,6.93
2024-01-20T09:33:07.558Z,5.70
2024-01-20T09:35:34.383Z,7.07
2024-01-20T09:38:01.171Z,5.25
2024-01-20T09:40:30.100Z,8.38
2024-01-20T09:42:57.216Z,6.80
2024-01-20T09:45:24.361Z,5.40
2024-01-20T09:47:51.512Z,7.57
2024-01-20T09:50:18.445Z,4.95
2024-01-20T09:53:04.167Z,5.85
2024-01-20T09:55:30.922Z,5.85
2024-01-20T09:57:59.714Z,6.18
2024-01-20T10:00:27.193Z,5.75
2024-01-20T10:02:55.168Z,5.80
2024-01-20T10:05:25.777Z,4.88
2024-01-20T10:07:52.651Z,4.93
2024-01-20T10:10:21.601Z,4.68
2024-01-20T10:12:52.813Z,4.80
2024-01-20T10:15:30.998Z,5.13
2024-01-20T10:18:01.179Z,6.75
2024-01-20T10:20:35.007Z,5.95
2024-01-20T10:23:05.056Z,5.45
2024-01-20T10:25:32.166Z,7.15
2024-01-20T10:27:59.969Z,6.47
2024-01-20T10:30:27.257Z,5.40
2024-01-20T10:33:04.354Z,5.65
2024-01-20T10:35:36.484Z,5.35
2024-01-20T10:38:10.472Z,6.30
2024-01-20T10:40:41.550Z,4.15
2024-01-20T10:43:15.609Z,5.65
2024-01-20T10:45:59.294Z,6.60
2024-01-20T10:48:35.090Z,7.40
2024-01-20T10:51:09.930Z,6.57
2024-01-20T10:53:37.841Z,8.48
2024-01-20T10:56:08.317Z,6.13
2024-01-20T10:58:43.743Z,7.65
2024-01-20T11:01:12.820Z,6.13
2024-01-20T11:03:40.445Z,6.10
2024-01-20T11:06:07.525Z,4.85
2024-01-20T11:08:34.340Z,6.65
2024-01-20T11:11:01.365Z,5.95
2024-01-20T11:13:28.411Z,5.07
2024-01-20T11:15:56.836Z,5.30
2024-01-20T11:18:25.070Z,5.15
2024-01-20T11:21:01.185Z,6.15
2024-01-20T11:23:28.833Z,5.55
2024-01-20T11:25:56.902Z,6.65
2024-01-20T11:28:47.012Z,7.43
2024-01-20T11:31:21.093Z,4.70
2024-01-20T11:33:48.856Z,5.20
2024-01-20T11:36:17.457Z,8.68
2024-01-20T11:38:46.146Z,6.47
2024-01-20T11:41:16.774Z,7.28
2024-01-20T11:43:47.381Z,5.32
2024-01-20T11:46:15.209Z,5.80
2024-01-20T11:48:43.531Z,6.25
2024-01-20T11:51:11.262Z,6.15
2024-01-20T11:53:39.250Z,7.72
2024-01-20T11:56:06.512Z,7.03
2024-01-20T11:58:33.795Z,9.00
2024-01-20T12:01:01.002Z,7.50
2024-01-20T12:03:28.361Z,7.28
2024-01-20T12:05:55.984Z,7.97
2024-01-20T12:10:51.896Z,7.57
2024-01-20T12:13:18.768Z,8.07
2024-01-20T12:15:49.099Z,12.18
2024-01-20T12:18:18.444Z,8.45
2024-01-20T12:20:46.014Z,6.63
2024-01-20T12:23:20.122Z,7.90
2024-01-20T12:25:51.871Z,7.38
2024-01-20T12:28:18.618Z,6.68
2024-01-20T12:30:45.540Z,5.28
2024-01-20T12:33:12.421Z,6.30
2024-01-20T12:35:39.266Z,5.85
2024-01-20T12:38:06.485Z,6.05
2024-01-20T12:40:33.468Z,9.73
2024-01-20T12:43:01.848Z,7.60
2024-01-20T12:45:28.729Z,8.20
2024-01-20T12:47:55.612Z,6.93
2024-01-20T12:50:22.424Z,6.10
2024-01-20T12:52:50.908Z,8.23
2024-01-20T12:55:17.828Z,6.65
2024-01-20T12:57:44.627Z,5.60
2024-01-20T13:00:12.329Z,6.60
2024-01-20T13:02:39.100Z,5.25
2024-01-20T13:05:06.611Z,6.85
2024-01-20T13:07:33.416Z,6.97
2024-01-20T13:10:00.186Z,6.35
2024-01-20T13:12:27.029Z,5.75
2024-01-20T13:14:53.831Z,6.22
2024-01-20T13:17:20.696Z,6.57
2024-01-20T13:19:50.291Z,6.53
2024-01-20T13:22:17.680Z,6.60
2024-01-20T13:24:44.543Z,6.47
2024-01-20T13:27:11.355Z,7.05
2024-01-20T13:29:38.115Z,6.00
2024-01-20T13:32:05.304Z,6.60
2024-01-20T13:34:34.569Z,7.95
2024-01-20T13:37:01.480Z,6.72
2024-01-20T13:39:28.247Z,5.80
2024-01-20T13:41:54.966Z,5.78
2024-01-20T13:44:21.664Z,7.07
2024-01-20T13:46:48.411Z,6.27
2024-01-20T13:49:15.271Z,6.75
2024-01-20T13:51:42.147Z,5.75
2024-01-20T13:54:08.989Z,8.05
2024-01-20T13:56:35.867Z,7.28
2024-01-20T13:59:03.642Z,5.93
2024-01-20T14:01:30.663Z,7.93
2024-01-20T14:03:57.958Z,8.05
2024-01-20T14:06:25.791Z,9.10
2024-01-20T14:08:53.218Z,6.65
2024-01-20T14:11:20.006Z,7.95
2024-01-20T14:13:46.917Z,10.75
2024-01-20T14:16:13.848Z,9.45
2024-01-20T14:18:40.846Z,7.22
2024-01-20T14:21:07.649Z,8.15
2024-01-20T14:23:34.368Z,6.83
2024-01-20T14:26:01.590Z,10.77
2024-01-20T14:28:28.832Z,8.55
2024-01-20T14:30:55.683Z,11.57
2024-01-20T14:33:29.182Z,7.35
2024-01-20T14:35:55.996Z,7.97
2024-01-20T14:38:22.694Z,8.50
2024-01-20T14:40:49.476Z,8.23
2024-01-20T14:43:16.240Z,8.45
2024-01-20T14:45:43.306Z,10.38
2024-01-20T14:48:10.324Z,8.93
2024-01-20T14:50:37.093Z,10.05
2024-01-20T14:53:04.274Z,8.15
2024-01-20T14:55:32.028Z,6.88
2024-01-20T14:57:59.390Z,9.32
2024-01-20T15:00:26.347Z,9.32
2024-01-20T15:02:53.354Z,8.85
2024-01-20T15:05:20.290Z,10.32
2024-01-20T15:07:47.093Z,8.75
2024-01-20T15:10:13.992Z,11.75
2024-01-20T15:12:40.951Z,8.38
2024-01-20T15:15:08.341Z,8.82
2024-01-20T15:17:35.173Z,7.03
2024-01-20T15:20:02.086Z,8.50
2024-01-20T15:22:28.910Z,7.50
2024-01-20T15:24:55.710Z,7.78
2024-01-20T15:27:22.478Z,8.05
2024-01-20T15:29:49.450Z,7.85
2024-01-20T15:32:16.216Z,7.80
2024-01-20T15:34:43.055Z,6.53
2024-01-20T15:37:09.879Z,7.70
2024-01-20T15:39:36.750Z,6.60
2024-01-20T15:42:03.815Z,7.38
2024-01-20T15:44:30.513Z,7.15
2024-01-20T15:46:57.269Z,6.93
2024-01-20T15:49:24.349Z,8.38
2024-01-20T15:51:51.466Z,8.25
2024-01-20T15:54:18.600Z,7.90
2024-01-20T15:56:45.509Z,8.50
2024-01-20T15:59:12.308Z,14.45
2024-01-20T16:01:39.188Z,10.98
2024-01-20T16:04:06.126Z,8.07
2024-01-20T16:06:33.286Z,7.78
2024-01-20T16:09:00.243Z,7.72
2024-01-20T16:11:27.165Z,8.25
2024-01-20T16:13:53.916Z,7.53
2024-01-20T16:16:20.687Z,7.80
2024-01-20T16:18:47.661Z,10.13
2024-01-20T16:21:25.326Z,7.15
2024-01-20T16:23:52.907Z,6.75
2024-01-20T16:31:17.902Z,6.18
2024-01-20T16:33:46.379Z,6.75
2024-01-20T16:36:19.590Z,7.30
2024-01-20T16:38:46.508Z,8.70
2024-01-20T16:41:13.542Z,7.63
2024-01-20T16:43:40.377Z,8.98
2024-01-20T16:46:07.646Z,9.32
2024-01-20T16:48:34.696Z,10.38
2024-01-20T16:51:01.846Z,8.88
2024-01-20T16:53:28.757Z,7.93
2024-01-20T16:55:55.764Z,9.50
2024-01-20T16:58:22.569Z,6.75
2024-01-20T17:00:49.490Z,8.45
2024-01-20T17:03:16.316Z,9.02
2024-01-20T17:05:43.162Z,8.85
2024-01-20T17:08:10.007Z,10.85
2024-01-20T17:10:36.744Z,10.45
2024-01-20T17:13:03.713Z,12.25
2024-01-20T17:15:30.897Z,9.25
2024-01-20T17:17:57.687Z,8.75
2024-01-20T17:20:24.447Z,11.60
2024-01-20T17:22:51.271Z,9.32
2024-01-20T17:25:18.156Z,10.15
2024-01-20T17:27:45.188Z,10.10
2024-01-20T17:30:12.357Z,8.15
2024-01-20T17:32:39.825Z,9.30
2024-01-20T17:35:09.157Z,8.90
2024-01-20T17:37:36.699Z,8.63
2024-01-20T17:40:07.323Z,9.38
2024-01-20T17:42:34.017Z,8.80
2024-01-20T17:45:00.907Z,12.90
2024-01-20T17:47:29.032Z,8.88
2024-01-20T17:49:56.793Z,7.72
2024-01-20T17:52:24.567Z,7.43
2024-01-20T17:54:51.429Z,8.68
2024-01-20T17:57:18.445Z,8.45
2024-01-20T17:59:52.367Z,8.15
2024-01-20T18:02:22.156Z,8.68
2024-01-20T18:04:51.862Z,12.00
2024-01-20T18:07:39.949Z,9.35
2024-01-20T18:10:07.535Z,10.15
2024-01-20T18:15:01.141Z,7.53
2024-01-20T18:17:27.891Z,9.30
2024-01-20T18:19:56.790Z,9.98
2024-01-20T18:22:24.833Z,11.50
2024-01-20T18:24:52.073Z,9.55
2024-01-20T18:27:18.835Z,11.15
2024-01-20T18:29:45.618Z,10.63
2024-01-20T18:32:12.345Z,10.68
2024-01-20T18:34:39.536Z,11.07
2024-01-20T18:37:06.328Z,9.60
2024-01-20T18:39:34.517Z,9.35
2024-01-20T18:42:01.362Z,9.07
2024-01-20T18:44:28.169Z,9.05
2024-01-20T18:46:54.970Z,10.52
2024-01-20T18:49:21.969Z,10.15
2024-01-20T18:51:48.815Z,10.68
2024-01-20T18:54:15.573Z,9.38
2024-01-20T18:56:42.330Z,11.85
2024-01-20T18:59:09.629Z,11.52
2024-01-20T19:01:40.109Z,10.07
2024-01-20T19:04:07.001Z,11.15
2024-01-20T19:06:34.074Z,10.18
2024-01-20T19:09:00.930Z,9.70
2024-01-20T19:11:27.666Z,10.82
2024-01-20T19:13:57.246Z,8.48
2024-01-20T19:16:25.381Z,11.43
2024-01-20T19:18:52.193Z,11.88
2024-01-20T19:21:19.007Z,13.02
2024-01-20T19:23:45.982Z,11.48
2024-01-20T19:26:13.297Z,9.68
2024-01-20T19:28:40.087Z,12.07
2024-01-20T19:31:07.600Z,11.15
2024-01-20T19:36:01.581Z,7.78
2024-01-20T19:38:28.314Z,9.77
2024-01-20T19:40:55.643Z,8.68
2024-01-20T19:43:22.445Z,10.30
2024-01-20T19:45:49.319Z,10.45
2024-01-20T19:48:16.202Z,10.18
2024-01-20T19:50:43.534Z,12.00
2024-01-20T19:53:10.292Z,10.55
2024-01-20T19:55:37.058Z,10.25
2024-01-20T19:58:04.083Z,11.90
2024-01-20T20:00:30.898Z,8.07
2024-01-20T20:03:00.223Z,11.73
2024-01-20T20:05:27.104Z,9.85
2024-01-20T20:07:53.972Z,17.30
2024-01-20T20:10:21.012Z,14.60
2024-01-20T20:12:48.975Z,13.18
2024-01-20T20:15:15.892Z,11.70
2024-01-20T20:17:44.190Z,11.82
2024-01-20T20:20:12.183Z,11.02
2024-01-20T20:22:39.396Z,10.07
2024-01-20T20:25:06.398Z,10.45
2024-01-20T20:27:33.256Z,12.55
2024-01-20T20:30:00.229Z,12.43
2024-01-20T20:32:27.493Z,9.88
2024-01-20T20:34:54.337Z,10.18
2024-01-20T20:37:21.417Z,11.80
2024-01-20T20:39:49.762Z,10.43
2024-01-20T20:42:17.482Z,12.98
2024-01-20T20:44:44.519Z,11.52
2024-01-20T20:47:11.621Z,10.93
2024-01-20T20:49:38.413Z,11.27
2024-01-20T20:52:06.823Z,11.88
2024-01-20T20:54:33.637Z,10.57
2024-01-20T20:57:00.364Z,11.32
2024-01-20T20:59:27.146Z,12.38
2024-01-20T21:01:53.842Z,13.98
2024-01-20T21:04:20.638Z,14.95
2024-01-20T21:06:47.558Z,13.45
2024-01-20T21:09:16.662Z,11.93
2024-01-20T21:11:43.520Z,11.18
2024-01-20T21:14:10.277Z,12.80
2024-01-20T21:16:37.083Z,11.90
2024-01-20T21:19:04.091Z,9.27
2024-01-20T21:21:30.926Z,11.02
2024-01-20T21:23:57.683Z,11.93
2024-01-20T21:26:24.911Z,11.25
2024-01-20T21:28:51.765Z,10.45
2024-01-20T21:31:18.856Z,12.18
2024-01-20T21:33:45.898Z,9.75
2024-01-20T21:36:13.675Z,9.35
2024-01-20T21:38:41.690Z,10.30
2024-01-20T21:41:08.690Z,9.57
2024-01-20T21:43:35.530Z,8.40
2024-01-20T21:46:02.444Z,10.60
2024-01-20T21:48:29.319Z,10.07
2024-01-20T21:50:57.566Z,9.05
2024-01-20T21:53:25.162Z,12.50
2024-01-20T21:55:51.985Z,11.52
2024-01-20T21:58:18.743Z,11.05
2024-01-20T22:00:46.592Z,14.75
2024-01-20T22:03:13.681Z,13.60
2024-01-20T22:05:40.530Z,12.55
2024-01-20T22:08:07.714Z,11.43
2024-01-20T22:10:34.553Z,9.63
2024-01-20T22:13:01.446Z,8.85
2024-01-20T22:15:29.177Z,11.52
2024-01-20T22:17:56.242Z,9.27
2024-01-20T22:20:23.986Z,8.23
2024-01-20T22:22:50.762Z,8.60
2024-01-20T22:25:17.674Z,8.23
2024-01-20T22:27:45.351Z,11.25
2024-01-20T22:30:12.926Z,11.32
2024-01-20T22:32:42.814Z,9.85
2024-01-20T22:35:09.741Z,11.23
2024-01-20T22:37:36.736Z,10.88
2024-01-20T22:40:04.989Z,10.52
2024-01-20T22:42:31.822Z,10.30
2024-01-20T22:44:58.678Z,10.25
2024-01-20T22:47:25.676Z,8.73
2024-01-20T22:49:52.487Z,11.15
2024-01-20T22:52:19.281Z,11.30
2024-01-20T22:54:46.198Z,7.90
2024-01-20T22:57:13.139Z,12.52
2024-01-20T22:59:39.966Z,10.55
2024-01-20T23:02:06.958Z,9.25
2024-01-20T23:04:33.998Z,9.68
2024-01-20T23:07:01.010Z,9.07
2024-01-20T23:09:27.935Z,8.90
2024-01-20T23:11:55.278Z,10.52
2024-01-20T23:14:22.261Z,9.32
2024-01-20T23:16:49.182Z,8.35
2024-01-20T23:19:16.077Z,9.30
2024-01-20T23:21:43.815Z,9.38
2024-01-20T23:24:10.576Z,8.00
2024-01-20T23:26:42.916Z,9.43
2024-01-20T23:29:09.822Z,9.93
2024-01-20T23:31:36.681Z,9.13
2024-01-20T23:34:04.588Z,9.45
2024-01-20T23:36:31.704Z,9.65
2024-01-20T23:38:58.693Z,8.85
2024-01-20T23:41:25.474Z,8.55
2024-01-20T23:43:52.185Z,8.75
2024-01-20T23:46:18.908Z,9.00
2024-01-20T23:48:45.734Z,9.07
2024-01-20T23:51:14.234Z,9.85
2024-01-20T23:53:41.041Z,11.88
2024-01-20T23:56:07.908Z,9.27
2024-01-20T23:58:34.680Z,8.75
